sensor_id;sensor_type;location;lat;lon;timestamp;noise_LAeq;noise_LA_min;noise_LA_max;noise_LA01;noise_LA95
37223;Laerm;28026;48.562;14.440;2023-07-29T00:00:36;37.44;34.69;43.24;;
37223;Laerm;28026;48.562;14.440;2023-07-29T00:03:07;36.85;33.44;50.14;;
37223;Laerm;28026;48.562;14.440;2023-07-29T00:05:39;37.44;32.93;44.89;;
37223;Laerm;28026;48.562;14.440;2023-07-29T00:08:10;38.95;33.90;43.68;;
37223;Laerm;28026;48.562;14.440;2023-07-29T00:10:40;37.92;33.90;42.82;;
37223;Laerm;28026;48.562;14.440;2023-07-29T00:13:11;37.03;31.68;40.98;;
37223;Laerm;28026;48.562;14.440;2023-07-29T00:15:42;40.39;34.31;48.32;;
37223;Laerm;28026;48.562;14.440;2023-07-29T00:18:13;39.93;33.44;44.51;;
37223;Laerm;28026;48.562;14.440;2023-07-29T00:20:44;39.27;33.44;46.20;;
37223;Laerm;28026;48.562;14.440;2023-07-29T00:23:15;42.02;37.12;49.60;;
37223;Laerm;28026;48.562;14.440;2023-07-29T00:25:46;39.32;32.93;54.20;;
37223;Laerm;28026;48.562;14.440;2023-07-29T00:28:17;36.60;31.33;44.54;;
37223;Laerm;28026;48.562;14.440;2023-07-29T00:30:47;36.69;30.89;40.13;;
37223;Laerm;28026;48.562;14.440;2023-07-29T00:33:18;36.95;30.89;39.92;;
37223;Laerm;28026;48.562;14.440;2023-07-29T00:35:51;37.81;32.35;42.98;;
37223;Laerm;28026;48.562;14.440;2023-07-29T00:38:22;37.13;32.00;41.82;;
37223;Laerm;28026;48.562;14.440;2023-07-29T00:40:53;36.57;30.89;48.29;;
37223;Laerm;28026;48.562;14.440;2023-07-29T00:43:24;36.77;31.68;39.68;;
37223;Laerm;28026;48.562;14.440;2023-07-29T00:45:54;36.70;31.68;39.34;;
37223;Laerm;28026;48.562;14.440;2023-07-29T00:48:27;36.90;30.89;46.45;;
37223;Laerm;28026;48.562;14.440;2023-07-29T00:50:58;37.42;32.35;51.94;;
37223;Laerm;28026;48.562;14.440;2023-07-29T00:53:29;39.38;31.68;61.22;;
37223;Laerm;28026;48.562;14.440;2023-07-29T00:56:00;41.22;30.89;64.20;;
37223;Laerm;28026;48.562;14.440;2023-07-29T00:58:31;44.90;32.35;67.63;;
37223;Laerm;28026;48.562;14.440;2023-07-29T01:01:03;44.99;31.68;69.86;;
37223;Laerm;28026;48.562;14.440;2023-07-29T01:03:35;37.18;30.89;57.28;;
37223;Laerm;28026;48.562;14.440;2023-07-29T01:15:39;54.51;33.44;77.84;;
37223;Laerm;28026;48.562;14.440;2023-07-29T01:18:28;54.92;31.68;79.75;;
37223;Laerm;28026;48.562;14.440;2023-07-29T01:21:07;60.53;33.90;86.81;;
37223;Laerm;28026;48.562;14.440;2023-07-29T01:23:39;58.37;33.90;82.02;;
37223;Laerm;28026;48.562;14.440;2023-07-29T01:26:10;57.27;33.44;83.57;;
37223;Laerm;28026;48.562;14.440;2023-07-29T01:28:41;56.69;32.93;80.30;;
37223;Laerm;28026;48.562;14.440;2023-07-29T01:31:47;53.75;32.93;79.01;;
37223;Laerm;28026;48.562;14.440;2023-07-29T01:34:37;46.93;31.68;73.74;;
37223;Laerm;28026;48.562;14.440;2023-07-29T01:37:19;48.12;31.68;72.86;;
37223;Laerm;28026;48.562;14.440;2023-07-29T01:39:58;43.29;31.68;63.93;;
37223;Laerm;28026;48.562;14.440;2023-07-29T01:42:30;41.36;30.89;61.96;;
37223;Laerm;28026;48.562;14.440;2023-07-29T01:45:02;40.26;31.68;64.21;;
37223;Laerm;28026;48.562;14.440;2023-07-29T01:47:33;43.09;33.44;71.31;;
37223;Laerm;28026;48.562;14.440;2023-07-29T01:50:05;46.00;30.89;71.19;;
37223;Laerm;28026;48.562;14.440;2023-07-29T01:52:36;48.31;30.89;70.52;;
37223;Laerm;28026;48.562;14.440;2023-07-29T01:55:07;42.69;30.89;67.05;;
37223;Laerm;28026;48.562;14.440;2023-07-29T01:57:38;43.77;30.89;69.06;;
37223;Laerm;28026;48.562;14.440;2023-07-29T02:00:10;41.05;30.89;62.24;;
37223;Laerm;28026;48.562;14.440;2023-07-29T02:02:41;43.70;29.92;66.19;;
37223;Laerm;28026;48.562;14.440;2023-07-29T02:05:12;47.81;31.68;72.04;;
37223;Laerm;28026;48.562;14.440;2023-07-29T02:07:43;49.09;32.35;72.12;;
37223;Laerm;28026;48.562;14.440;2023-07-29T02:10:14;58.15;33.90;82.57;;
37223;Laerm;28026;48.562;14.440;2023-07-29T02:12:44;60.59;33.90;84.21;;
37223;Laerm;28026;48.562;14.440;2023-07-29T02:15:15;64.21;37.12;90.17;;
37223;Laerm;28026;48.562;14.440;2023-07-29T02:17:46;63.27;35.36;83.53;;
37223;Laerm;28026;48.562;14.440;2023-07-29T02:20:17;68.60;39.46;88.99;;
37223;Laerm;28026;48.562;14.440;2023-07-29T02:22:48;66.89;39.70;88.32;;
37223;Laerm;28026;48.562;14.440;2023-07-29T02:25:19;61.92;38.21;88.39;;
37223;Laerm;28026;48.562;14.440;2023-07-29T02:27:50;63.98;36.45;95.37;;
37223;Laerm;28026;48.562;14.440;2023-07-29T02:30:21;55.60;36.45;82.59;;
37223;Laerm;28026;48.562;14.440;2023-07-29T02:32:52;42.66;34.69;71.31;;
37223;Laerm;28026;48.562;14.440;2023-07-29T02:35:23;50.85;33.90;79.95;;
37223;Laerm;28026;48.562;14.440;2023-07-29T02:37:53;41.56;32.93;65.22;;
37223;Laerm;28026;48.562;14.440;2023-07-29T02:40:24;40.46;33.90;65.22;;
37223;Laerm;28026;48.562;14.440;2023-07-29T02:42:57;53.01;30.89;81.33;;
37223;Laerm;28026;48.562;14.440;2023-07-29T02:45:28;51.02;32.93;81.87;;
37223;Laerm;28026;48.562;14.440;2023-07-29T02:47:59;61.57;33.44;88.59;;
37223;Laerm;28026;48.562;14.440;2023-07-29T02:50:30;55.21;33.44;85.69;;
37223;Laerm;28026;48.562;14.440;2023-07-29T02:53:01;50.48;32.35;78.12;;
37223;Laerm;28026;48.562;14.440;2023-07-29T02:55:32;46.21;34.31;72.11;;
37223;Laerm;28026;48.562;14.440;2023-07-29T02:58:03;58.76;32.93;87.02;;
37223;Laerm;28026;48.562;14.440;2023-07-29T03:00:34;54.93;34.69;88.54;;
37223;Laerm;28026;48.562;14.440;2023-07-29T03:03:06;51.90;32.93;84.22;;
37223;Laerm;28026;48.562;14.440;2023-07-29T03:05:37;41.01;32.35;67.93;;
37223;Laerm;28026;48.562;14.440;2023-07-29T03:08:08;47.43;32.35;72.92;;
37223;Laerm;28026;48.562;14.440;2023-07-29T03:10:40;43.21;32.35;66.74;;
37223;Laerm;28026;48.562;14.440;2023-07-29T03:13:12;37.92;30.89;60.74;;
37223;Laerm;28026;48.562;14.440;2023-07-29T03:15:43;39.16;32.58;60.93;;
37223;Laerm;28026;48.562;14.440;2023-07-29T03:18:15;40.17;32.93;59.49;;
37223;Laerm;28026;48.562;14.440;2023-07-29T03:20:46;39.27;32.35;52.81;;
37223;Laerm;28026;48.562;14.440;2023-07-29T03:23:16;39.08;32.35;53.17;;
37223;Laerm;28026;48.562;14.440;2023-07-29T03:25:50;44.88;34.31;69.89;;
37223;Laerm;28026;48.562;14.440;2023-07-29T03:28:32;42.78;32.93;70.47;;
37223;Laerm;28026;48.562;14.440;2023-07-29T03:31:03;39.30;31.68;55.81;;
37223;Laerm;28026;48.562;14.440;2023-07-29T03:33:34;41.01;32.93;53.78;;
37223;Laerm;28026;48.562;14.440;2023-07-29T03:36:05;40.37;33.90;64.93;;
37223;Laerm;28026;48.562;14.440;2023-07-29T03:38:36;41.86;31.68;64.80;;
37223;Laerm;28026;48.562;14.440;2023-07-29T03:41:10;42.78;34.69;57.49;;
37223;Laerm;28026;48.562;14.440;2023-07-29T03:43:41;45.19;33.90;67.42;;
37223;Laerm;28026;48.562;14.440;2023-07-29T03:46:12;40.12;31.68;64.09;;
37223;Laerm;28026;48.562;14.440;2023-07-29T03:48:44;39.50;33.44;50.77;;
37223;Laerm;28026;48.562;14.440;2023-07-29T03:51:14;42.14;33.44;67.72;;
37223;Laerm;28026;48.562;14.440;2023-07-29T03:53:45;43.25;32.93;68.60;;
37223;Laerm;28026;48.562;14.440;2023-07-29T03:56:16;44.94;32.35;60.56;;
37223;Laerm;28026;48.562;14.440;2023-07-29T03:58:47;43.56;33.90;64.39;;
37223;Laerm;28026;48.562;14.440;2023-07-29T04:01:20;42.91;33.90;63.45;;
37223;Laerm;28026;48.562;14.440;2023-07-29T04:03:51;41.48;33.44;54.30;;
37223;Laerm;28026;48.562;14.440;2023-07-29T04:06:22;44.02;37.88;55.05;;
37223;Laerm;28026;48.562;14.440;2023-07-29T04:08:53;38.98;31.68;57.83;;
37223;Laerm;28026;48.562;14.440;2023-07-29T04:11:24;40.50;32.35;63.52;;
37223;Laerm;28026;48.562;14.440;2023-07-29T04:13:56;40.06;32.35;57.45;;
37223;Laerm;28026;48.562;14.440;2023-07-29T04:16:27;41.72;35.36;59.28;;
37223;Laerm;28026;48.562;14.440;2023-07-29T04:18:59;40.20;34.31;55.92;;
37223;Laerm;28026;48.562;14.440;2023-07-29T04:21:30;43.17;34.31;64.17;;
37223;Laerm;28026;48.562;14.440;2023-07-29T04:24:01;39.58;30.89;62.50;;
37223;Laerm;28026;48.562;14.440;2023-07-29T04:26:32;39.57;32.93;53.46;;
37223;Laerm;28026;48.562;14.440;2023-07-29T04:29:02;39.25;33.90;58.09;;
37223;Laerm;28026;48.562;14.440;2023-07-29T04:31:33;42.40;31.68;60.98;;
37223;Laerm;28026;48.562;14.440;2023-07-29T04:34:05;45.72;31.68;69.05;;
37223;Laerm;28026;48.562;14.440;2023-07-29T04:36:36;44.56;33.90;74.19;;
37223;Laerm;28026;48.562;14.440;2023-07-29T04:39:07;40.58;33.90;61.99;;
37223;Laerm;28026;48.562;14.440;2023-07-29T04:41:38;41.10;33.44;62.19;;
37223;Laerm;28026;48.562;14.440;2023-07-29T04:44:09;38.52;32.35;45.04;;
37223;Laerm;28026;48.562;14.440;2023-07-29T04:46:40;39.66;32.35;66.42;;
37223;Laerm;28026;48.562;14.440;2023-07-29T04:49:11;41.05;34.69;53.89;;
37223;Laerm;28026;48.562;14.440;2023-07-29T04:51:41;42.84;32.93;60.17;;
37223;Laerm;28026;48.562;14.440;2023-07-29T04:54:12;41.21;33.90;67.90;;
37223;Laerm;28026;48.562;14.440;2023-07-29T04:56:43;40.80;33.44;58.77;;
37223;Laerm;28026;48.562;14.440;2023-07-29T04:59:14;42.05;35.36;63.15;;
37223;Laerm;28026;48.562;14.440;2023-07-29T05:01:45;42.97;33.44;73.69;;
37223;Laerm;28026;48.562;14.440;2023-07-29T05:04:16;40.01;33.55;60.40;;
37223;Laerm;28026;48.562;14.440;2023-07-29T05:06:47;43.37;38.21;54.93;;
37223;Laerm;28026;48.562;14.440;2023-07-29T05:09:19;40.32;33.90;44.80;;
37223;Laerm;28026;48.562;14.440;2023-07-29T05:11:53;41.48;34.69;45.33;;
37223;Laerm;28026;48.562;14.440;2023-07-29T05:14:24;40.61;34.69;60.05;;
37223;Laerm;28026;48.562;14.440;2023-07-29T05:16:55;39.44;33.44;61.24;;
37223;Laerm;28026;48.562;14.440;2023-07-29T05:19:26;41.47;33.44;62.85;;
37223;Laerm;28026;48.562;14.440;2023-07-29T05:21:57;43.11;36.69;59.10;;
37223;Laerm;28026;48.562;14.440;2023-07-29T05:24:28;40.95;35.04;58.45;;
37223;Laerm;28026;48.562;14.440;2023-07-29T05:26:58;41.58;35.94;48.66;;
37223;Laerm;28026;48.562;14.440;2023-07-29T05:29:29;40.39;35.04;56.90;;
37223;Laerm;28026;48.562;14.440;2023-07-29T05:32:00;45.66;33.90;77.20;;
37223;Laerm;28026;48.562;14.440;2023-07-29T05:34:31;42.83;34.31;70.69;;
37223;Laerm;28026;48.562;14.440;2023-07-29T05:37:02;39.55;32.35;56.50;;
37223;Laerm;28026;48.562;14.440;2023-07-29T05:39:33;38.52;32.93;48.87;;
37223;Laerm;28026;48.562;14.440;2023-07-29T05:42:05;39.29;32.93;55.83;;
37223;Laerm;28026;48.562;14.440;2023-07-29T05:44:36;39.93;34.31;54.12;;
37223;Laerm;28026;48.562;14.440;2023-07-29T05:47:06;43.01;35.36;54.91;;
37223;Laerm;28026;48.562;14.440;2023-07-29T05:49:37;41.96;35.66;50.43;;
37223;Laerm;28026;48.562;14.440;2023-07-29T05:52:09;39.52;32.93;51.75;;
37223;Laerm;28026;48.562;14.440;2023-07-29T05:54:40;40.54;34.69;46.52;;
37223;Laerm;28026;48.562;14.440;2023-07-29T05:57:12;40.17;33.90;45.60;;
37223;Laerm;28026;48.562;14.440;2023-07-29T05:59:43;38.88;35.31;55.06;;
37223;Laerm;28026;48.562;14.440;2023-07-29T06:02:14;40.67;35.66;55.72;;
37223;Laerm;28026;48.562;14.440;2023-07-29T06:04:45;39.28;34.69;57.54;;
37223;Laerm;28026;48.562;14.440;2023-07-29T06:07:15;38.57;34.69;49.66;;
37223;Laerm;28026;48.562;14.440;2023-07-29T06:09:46;41.11;35.31;52.98;;
37223;Laerm;28026;48.562;14.440;2023-07-29T06:12:17;39.74;34.69;61.33;;
37223;Laerm;28026;48.562;14.440;2023-07-29T06:14:48;39.27;35.04;47.28;;
37223;Laerm;28026;48.562;14.440;2023-07-29T06:17:19;40.90;37.12;51.99;;
37223;Laerm;28026;48.562;14.440;2023-07-29T06:19:50;40.21;35.66;46.36;;
37223;Laerm;28026;48.562;14.440;2023-07-29T06:22:21;39.90;34.69;59.51;;
37223;Laerm;28026;48.562;14.440;2023-07-29T06:24:51;41.52;36.91;51.31;;
37223;Laerm;28026;48.562;14.440;2023-07-29T06:27:23;41.60;36.69;59.11;;
37223;Laerm;28026;48.562;14.440;2023-07-29T06:29:55;44.67;36.91;73.11;;
37223;Laerm;28026;48.562;14.440;2023-07-29T06:32:26;43.06;36.69;66.76;;
37223;Laerm;28026;48.562;14.440;2023-07-29T06:34:57;55.57;36.91;79.95;;
37223;Laerm;28026;48.562;14.440;2023-07-29T06:37:27;51.59;33.90;76.64;;
37223;Laerm;28026;48.562;14.440;2023-07-29T06:39:58;62.31;36.91;84.61;;
37223;Laerm;28026;48.562;14.440;2023-07-29T06:42:29;55.10;35.94;82.89;;
37223;Laerm;28026;48.562;14.440;2023-07-29T06:45:00;57.90;35.36;83.88;;
37223;Laerm;28026;48.562;14.440;2023-07-29T06:47:31;60.80;36.20;82.96;;
37223;Laerm;28026;48.562;14.440;2023-07-29T06:50:02;48.33;36.69;72.45;;
37223;Laerm;28026;48.562;14.440;2023-07-29T06:52:33;50.23;36.45;77.16;;
37223;Laerm;28026;48.562;14.440;2023-07-29T06:55:04;62.78;36.20;92.02;;
37223;Laerm;28026;48.562;14.440;2023-07-29T06:57:35;48.58;35.94;73.14;;
37223;Laerm;28026;48.562;14.440;2023-07-29T07:00:07;50.58;36.20;74.05;;
37223;Laerm;28026;48.562;14.440;2023-07-29T07:02:39;55.51;37.32;79.89;;
37223;Laerm;28026;48.562;14.440;2023-07-29T07:05:10;50.88;35.66;75.55;;
37223;Laerm;28026;48.562;14.440;2023-07-29T07:07:41;48.81;35.94;74.45;;
37223;Laerm;28026;48.562;14.440;2023-07-29T07:10:14;42.40;37.12;64.05;;
37223;Laerm;28026;48.562;14.440;2023-07-29T07:12:45;45.98;36.20;72.27;;
37223;Laerm;28026;48.562;14.440;2023-07-29T07:15:16;56.13;35.36;81.47;;
37223;Laerm;28026;48.562;14.440;2023-07-29T07:17:47;57.68;36.91;83.53;;
37223;Laerm;28026;48.562;14.440;2023-07-29T07:20:18;57.94;35.66;82.76;;
37223;Laerm;28026;48.562;14.440;2023-07-29T07:22:49;51.59;35.94;79.88;;
37223;Laerm;28026;48.562;14.440;2023-07-29T07:25:19;48.32;36.91;72.88;;
37223;Laerm;28026;48.562;14.440;2023-07-29T07:27:50;53.30;35.36;79.37;;
37223;Laerm;28026;48.562;14.440;2023-07-29T07:30:21;49.54;36.20;74.60;;
37223;Laerm;28026;48.562;14.440;2023-07-29T07:32:52;51.95;35.94;77.05;;
37223;Laerm;28026;48.562;14.440;2023-07-29T07:35:23;50.43;35.94;77.70;;
37223;Laerm;28026;48.562;14.440;2023-07-29T07:37:53;62.34;36.45;93.13;;
37223;Laerm;28026;48.562;14.440;2023-07-29T07:40:24;68.35;36.91;93.04;;
37223;Laerm;28026;48.562;14.440;2023-07-29T07:42:55;65.40;36.69;89.32;;
37223;Laerm;28026;48.562;14.440;2023-07-29T07:45:26;67.09;37.70;94.43;;
37223;Laerm;28026;48.562;14.440;2023-07-29T07:47:57;64.42;36.91;90.73;;
37223;Laerm;28026;48.562;14.440;2023-07-29T07:50:30;56.34;36.69;79.89;;
37223;Laerm;28026;48.562;14.440;2023-07-29T07:53:01;60.70;36.20;88.33;;
37223;Laerm;28026;48.562;14.440;2023-07-29T07:55:32;54.99;37.12;80.29;;
37223;Laerm;28026;48.562;14.440;2023-07-29T07:58:03;46.80;36.91;70.66;;
37223;Laerm;28026;48.562;14.440;2023-07-29T08:00:34;60.62;36.91;87.15;;
37223;Laerm;28026;48.562;14.440;2023-07-29T08:03:04;58.01;37.52;88.98;;
37223;Laerm;28026;48.562;14.440;2023-07-29T08:05:35;66.39;39.81;88.91;;
37223;Laerm;28026;48.562;14.440;2023-07-29T08:08:06;74.03;40.13;97.16;;
37223;Laerm;28026;48.562;14.440;2023-07-29T08:10:37;71.82;40.03;92.95;;
37223;Laerm;28026;48.562;14.440;2023-07-29T08:13:08;66.53;38.81;90.49;;
37223;Laerm;28026;48.562;14.440;2023-07-29T08:15:39;57.58;37.52;85.97;;
37223;Laerm;28026;48.562;14.440;2023-07-29T08:18:09;53.02;37.87;75.65;;
37223;Laerm;28026;48.562;14.440;2023-07-29T08:20:40;62.00;36.91;89.37;;
37223;Laerm;28026;48.562;14.440;2023-07-29T08:23:11;56.53;37.12;83.37;;
37223;Laerm;28026;48.562;14.440;2023-07-29T08:25:42;61.12;37.88;83.59;;
37223;Laerm;28026;48.562;14.440;2023-07-29T08:28:13;57.69;38.21;83.43;;
37223;Laerm;28026;48.562;14.440;2023-07-29T08:30:44;57.45;37.12;86.93;;
37223;Laerm;28026;48.562;14.440;2023-07-29T08:33:15;60.18;39.70;83.31;;
37223;Laerm;28026;48.562;14.440;2023-07-29T08:35:46;70.03;41.68;93.82;;
37223;Laerm;28026;48.562;14.440;2023-07-29T08:38:17;69.81;42.03;94.88;;
37223;Laerm;28026;48.562;14.440;2023-07-29T08:41:07;63.94;38.95;87.41;;
37223;Laerm;28026;48.562;14.440;2023-07-29T08:43:56;61.21;37.88;87.09;;
37223;Laerm;28026;48.562;14.440;2023-07-29T08:46:30;63.81;38.37;85.71;;
37223;Laerm;28026;48.562;14.440;2023-07-29T08:49:02;69.82;40.33;93.25;;
37223;Laerm;28026;48.562;14.440;2023-07-29T08:51:34;63.02;43.14;81.65;;
37223;Laerm;28026;48.562;14.440;2023-07-29T08:54:06;58.79;44.65;87.79;;
37223;Laerm;28026;48.562;14.440;2023-07-29T08:56:40;57.24;44.11;84.24;;
37223;Laerm;28026;48.562;14.440;2023-07-29T08:59:13;59.77;38.95;86.25;;
37223;Laerm;28026;48.562;14.440;2023-07-29T09:01:44;59.97;41.55;84.54;;
37223;Laerm;28026;48.562;14.440;2023-07-29T09:04:15;56.47;42.71;82.46;;
37223;Laerm;28026;48.562;14.440;2023-07-29T09:06:50;58.38;44.19;80.37;;
37223;Laerm;28026;48.562;14.440;2023-07-29T09:09:21;60.66;45.69;85.71;;
37223;Laerm;28026;48.562;14.440;2023-07-29T09:11:53;62.67;46.30;86.50;;
37223;Laerm;28026;48.562;14.440;2023-07-29T09:14:24;60.44;47.86;84.97;;
37223;Laerm;28026;48.562;14.440;2023-07-29T09:16:55;65.79;48.34;93.52;;
37223;Laerm;28026;48.562;14.440;2023-07-29T09:19:26;62.52;48.15;85.83;;
37223;Laerm;28026;48.562;14.440;2023-07-29T09:21:57;62.66;48.37;87.24;;
37223;Laerm;28026;48.562;14.440;2023-07-29T09:24:29;59.74;46.78;82.03;;
37223;Laerm;28026;48.562;14.440;2023-07-29T09:27:03;60.67;48.92;83.08;;
37223;Laerm;28026;48.562;14.440;2023-07-29T09:29:36;66.33;49.90;93.35;;
37223;Laerm;28026;48.562;14.440;2023-07-29T09:32:22;60.94;46.93;85.10;;
37223;Laerm;28026;48.562;14.440;2023-07-29T09:34:53;61.53;36.20;90.57;;
37223;Laerm;28026;48.562;14.440;2023-07-29T09:37:24;58.84;35.66;87.71;;
37223;Laerm;28026;48.562;14.440;2023-07-29T09:39:55;52.70;35.36;82.55;;
37223;Laerm;28026;48.562;14.440;2023-07-29T09:42:26;62.18;36.20;88.08;;
37223;Laerm;28026;48.562;14.440;2023-07-29T09:44:57;61.61;37.70;88.19;;
37223;Laerm;28026;48.562;14.440;2023-07-29T09:47:28;54.08;37.70;79.71;;
37223;Laerm;28026;48.562;14.440;2023-07-29T09:50:00;59.80;36.69;83.12;;
37223;Laerm;28026;48.562;14.440;2023-07-29T09:52:31;62.20;38.37;90.87;;
37223;Laerm;28026;48.562;14.440;2023-07-29T09:55:03;66.63;39.34;91.76;;
37223;Laerm;28026;48.562;14.440;2023-07-29T09:57:34;62.36;42.47;87.43;;
37223;Laerm;28026;48.562;14.440;2023-07-29T10:00:07;69.32;42.59;93.57;;
37223;Laerm;28026;48.562;14.440;2023-07-29T10:02:43;73.02;43.77;95.34;;
37223;Laerm;28026;48.562;14.440;2023-07-29T10:05:16;77.13;39.58;100.03;;
37223;Laerm;28026;48.562;14.440;2023-07-29T10:07:48;67.75;41.46;92.35;;
37223;Laerm;28026;48.562;14.440;2023-07-29T10:10:20;65.62;43.77;95.28;;
37223;Laerm;28026;48.562;14.440;2023-07-29T10:12:54;65.59;45.48;90.61;;
37223;Laerm;28026;48.562;14.440;2023-07-29T10:15:26;66.96;43.44;92.12;;
37223;Laerm;28026;48.562;14.440;2023-07-29T10:17:58;66.62;42.65;92.62;;
37223;Laerm;28026;48.562;14.440;2023-07-29T10:20:30;71.34;45.45;94.95;;
37223;Laerm;28026;48.562;14.440;2023-07-29T10:23:07;54.32;44.16;74.98;;
37223;Laerm;28026;48.562;14.440;2023-07-29T10:26:03;48.74;38.81;73.07;;
37223;Laerm;28026;48.562;14.440;2023-07-29T10:28:41;54.39;38.05;82.01;;
37223;Laerm;28026;48.562;14.440;2023-07-29T10:31:17;59.05;38.52;85.61;;
37223;Laerm;28026;48.562;14.440;2023-07-29T10:33:50;63.34;39.08;94.37;;
37223;Laerm;28026;48.562;14.440;2023-07-29T10:36:21;48.11;37.70;72.31;;
37223;Laerm;28026;48.562;14.440;2023-07-29T10:38:53;49.73;38.05;77.55;;
37223;Laerm;28026;48.562;14.440;2023-07-29T10:42:01;53.52;37.88;80.24;;
37223;Laerm;28026;48.562;14.440;2023-07-29T10:47:26;47.20;39.46;68.59;;
37223;Laerm;28026;48.562;14.440;2023-07-29T10:49:59;49.60;43.29;67.90;;
37223;Laerm;28026;48.562;14.440;2023-07-29T10:55:37;47.74;38.52;60.18;;
37223;Laerm;28026;48.562;14.440;2023-07-29T10:58:15;44.28;37.70;59.42;;
37223;Laerm;28026;48.562;14.440;2023-07-29T11:00:49;41.30;35.01;55.02;;
37223;Laerm;28026;48.562;14.440;2023-07-29T11:03:20;43.21;32.93;70.03;;
37223;Laerm;28026;48.562;14.440;2023-07-29T11:05:53;44.33;35.36;71.32;;
37223;Laerm;28026;48.562;14.440;2023-07-29T11:08:30;42.39;35.36;64.92;;
37223;Laerm;28026;48.562;14.440;2023-07-29T11:11:12;45.52;34.31;67.75;;
37223;Laerm;28026;48.562;14.440;2023-07-29T11:13:45;51.91;35.36;75.16;;
37223;Laerm;28026;48.562;14.440;2023-07-29T11:16:16;43.91;35.04;70.26;;
37223;Laerm;28026;48.562;14.440;2023-07-29T11:18:48;45.92;37.32;69.71;;
37223;Laerm;28026;48.562;14.440;2023-07-29T11:21:20;41.66;35.94;49.69;;
37223;Laerm;28026;48.562;14.440;2023-07-29T11:23:53;40.84;35.01;58.03;;
37223;Laerm;28026;48.562;14.440;2023-07-29T11:26:24;40.78;33.44;60.77;;
37223;Laerm;28026;48.562;14.440;2023-07-29T11:28:55;44.77;37.12;65.57;;
37223;Laerm;28026;48.562;14.440;2023-07-29T11:31:40;46.96;35.94;70.91;;
37223;Laerm;28026;48.562;14.440;2023-07-29T11:34:11;45.11;37.12;70.17;;
37223;Laerm;28026;48.562;14.440;2023-07-29T11:36:46;58.01;37.12;84.42;;
37223;Laerm;28026;48.562;14.440;2023-07-29T11:39:17;46.86;36.69;69.97;;
37223;Laerm;28026;48.562;14.440;2023-07-29T11:41:48;43.39;37.52;62.59;;
37223;Laerm;28026;48.562;14.440;2023-07-29T11:44:18;47.66;35.66;71.61;;
37223;Laerm;28026;48.562;14.440;2023-07-29T11:46:49;51.80;35.04;80.56;;
37223;Laerm;28026;48.562;14.440;2023-07-29T11:49:20;48.82;35.94;75.95;;
37223;Laerm;28026;48.562;14.440;2023-07-29T11:51:52;46.48;36.69;70.33;;
37223;Laerm;28026;48.562;14.440;2023-07-29T11:54:25;48.57;35.66;72.52;;
37223;Laerm;28026;48.562;14.440;2023-07-29T11:56:56;53.42;36.56;80.91;;
37223;Laerm;28026;48.562;14.440;2023-07-29T11:59:27;47.77;38.21;72.38;;
37223;Laerm;28026;48.562;14.440;2023-07-29T12:02:10;44.29;36.45;62.71;;
37223;Laerm;28026;48.562;14.440;2023-07-29T12:04:44;49.49;35.66;73.49;;
37223;Laerm;28026;48.562;14.440;2023-07-29T12:07:18;51.97;37.32;77.96;;
37223;Laerm;28026;48.562;14.440;2023-07-29T12:09:50;47.08;36.91;72.73;;
37223;Laerm;28026;48.562;14.440;2023-07-29T12:12:23;59.28;37.88;86.75;;
37223;Laerm;28026;48.562;14.440;2023-07-29T12:14:55;48.30;36.69;74.65;;
37223;Laerm;28026;48.562;14.440;2023-07-29T12:17:25;53.04;34.69;84.53;;
37223;Laerm;28026;48.562;14.440;2023-07-29T12:19:57;59.24;36.45;84.68;;
37223;Laerm;28026;48.562;14.440;2023-07-29T12:22:29;49.96;36.10;73.36;;
37223;Laerm;28026;48.562;14.440;2023-07-29T12:25:00;50.74;35.36;78.73;;
37223;Laerm;28026;48.562;14.440;2023-07-29T12:27:31;55.00;36.45;80.08;;
37223;Laerm;28026;48.562;14.440;2023-07-29T12:30:03;51.21;38.21;75.42;;
37223;Laerm;28026;48.562;14.440;2023-07-29T12:32:46;49.80;35.36;65.76;;
37223;Laerm;28026;48.562;14.440;2023-07-29T12:35:17;48.81;34.69;77.10;;
37223;Laerm;28026;48.562;14.440;2023-07-29T12:38:00;45.61;35.66;67.49;;
37223;Laerm;28026;48.562;14.440;2023-07-29T12:40:31;51.75;33.44;75.13;;
37223;Laerm;28026;48.562;14.440;2023-07-29T12:43:01;48.62;35.94;67.42;;
37223;Laerm;28026;48.562;14.440;2023-07-29T12:45:37;41.56;34.69;63.46;;
37223;Laerm;28026;48.562;14.440;2023-07-29T12:48:11;53.37;35.94;66.04;;
37223;Laerm;28026;48.562;14.440;2023-07-29T12:50:42;49.90;35.94;66.32;;
37223;Laerm;28026;48.562;14.440;2023-07-29T12:53:12;60.90;37.88;96.17;;
37223;Laerm;28026;48.562;14.440;2023-07-29T12:55:43;58.20;36.69;82.80;;
37223;Laerm;28026;48.562;14.440;2023-07-29T12:58:14;61.85;38.05;89.64;;
37223;Laerm;28026;48.562;14.440;2023-07-29T13:00:45;56.72;38.37;83.46;;
37223;Laerm;28026;48.562;14.440;2023-07-29T13:03:16;52.17;36.45;78.77;;
37223;Laerm;28026;48.562;14.440;2023-07-29T13:05:47;56.19;35.94;85.79;;
37223;Laerm;28026;48.562;14.440;2023-07-29T13:08:17;48.54;36.20;71.70;;
37223;Laerm;28026;48.562;14.440;2023-07-29T13:10:48;50.94;35.94;74.89;;
37223;Laerm;28026;48.562;14.440;2023-07-29T13:13:19;53.88;37.12;82.63;;
37223;Laerm;28026;48.562;14.440;2023-07-29T13:15:51;56.89;37.70;82.90;;
37223;Laerm;28026;48.562;14.440;2023-07-29T13:18:23;58.59;37.52;91.63;;
37223;Laerm;28026;48.562;14.440;2023-07-29T13:20:54;51.83;37.88;81.70;;
37223;Laerm;28026;48.562;14.440;2023-07-29T13:23:26;53.42;37.12;83.45;;
37223;Laerm;28026;48.562;14.440;2023-07-29T13:25:58;48.67;37.12;73.03;;
37223;Laerm;28026;48.562;14.440;2023-07-29T13:28:29;46.94;35.66;72.96;;
37223;Laerm;28026;48.562;14.440;2023-07-29T13:31:01;50.15;37.88;73.26;;
37223;Laerm;28026;48.562;14.440;2023-07-29T13:33:32;55.54;38.21;78.97;;
37223;Laerm;28026;48.562;14.440;2023-07-29T13:36:05;52.16;38.21;77.74;;
37223;Laerm;28026;48.562;14.440;2023-07-29T13:38:36;66.91;36.69;97.37;;
37223;Laerm;28026;48.562;14.440;2023-07-29T13:41:07;45.63;37.32;72.35;;
37223;Laerm;28026;48.562;14.440;2023-07-29T13:43:37;54.80;38.05;83.52;;
37223;Laerm;28026;48.562;14.440;2023-07-29T13:46:08;55.37;38.95;79.09;;
37223;Laerm;28026;48.562;14.440;2023-07-29T13:48:39;63.70;38.67;91.44;;
37223;Laerm;28026;48.562;14.440;2023-07-29T13:51:10;45.11;38.52;65.92;;
37223;Laerm;28026;48.562;14.440;2023-07-29T13:53:41;43.26;38.37;59.30;;
37223;Laerm;28026;48.562;14.440;2023-07-29T13:56:11;43.69;38.67;65.26;;
37223;Laerm;28026;48.562;14.440;2023-07-29T13:58:42;47.65;37.88;74.79;;
37223;Laerm;28026;48.562;14.440;2023-07-29T14:01:13;44.36;37.12;66.86;;
37223;Laerm;28026;48.562;14.440;2023-07-29T14:03:44;47.32;37.12;71.72;;
37223;Laerm;28026;48.562;14.440;2023-07-29T14:06:15;54.53;37.88;80.18;;
37223;Laerm;28026;48.562;14.440;2023-07-29T14:08:46;51.28;37.88;74.77;;
37223;Laerm;28026;48.562;14.440;2023-07-29T14:11:17;55.80;37.88;81.93;;
37223;Laerm;28026;48.562;14.440;2023-07-29T14:13:47;54.70;40.13;83.58;;